SBBE/BEL METAR and TAF weather

Enter ICAO airport designator
Station Type Date Time Source
SBBE METAR 2019/08/24 18:00 UTC NOAA

SBBE 241800Z 34009KT 9999 SCT030 30/25 Q1012


Station Type Date Time Source
SBBE Decoded METAR 2019/08/24 18:00 UTC NOAA

Station name not available
Aug 24, 2019 - 02:00 PM EDT / 2019.08.24 1800 UTC
Wind: from the NNW (340 degrees) at 10 MPH (9 KT):0
Visibility: greater than 7 mile(s):0
Sky conditions: partly cloudy
Temperature: 86 F (30 C)
Heat index: 96.8 F (36.0 C):1
Dew Point: 77 F (25 C)
Relative Humidity: 74%
Pressure (altimeter): 29.88 in. Hg (1012 hPa)
ob: SBBE 241800Z 34009KT 9999 SCT030 30/25 Q1012
cycle: 18

Station Type Date Time Source
SBBE TAF 2019/08/24 18:12 UTC NOAA

TAF TAF SBBE 241500Z 2418/2518 33010KT 9999 SCT020 TX31/2419Z TN22/2509Z PROB30 2418/2420 SCT017 FEW030TCU
BECMG 2420/2422 07007KT SCT025
BECMG 2501/2503 CAVOK
BECMG 2511/2513 04010KT SCT017
BECMG 2515/2517 35010KT SCT025 FEW030TCU
RMK PGY

Example: see airport list